< Cyclone 197113 1971 Season Cyclone 197116 >
Cyclone 197115 (IDA)
General InformationTrack Information on Google Maps || ResourceGoogle EarthGE AnimationAtom FeedGeoJSON
Detalied Best Track (Time Zone = UTC)
Year Month Day Hour Lat. Long. Pressure (hPa) Wind (kt) Class Image Chart
1971 2 15 23 -16.9 155.2 1004 0 0 -- --
1971 2 16 02 -17.3 155.7 1003 0 0 -- --
1971 2 16 08 -16.6 157.1 999 0 0 -- --
1971 2 16 11 -17.3 157.3 1000 0 0 -- --
1971 2 16 14 -17.4 156.9 998 0 0 -- --
1971 2 16 17 -17.2 156.5 997 0 0 -- --
1971 2 16 20 -16.6 156.5 995 0 0 -- --
1971 2 16 23 -16.6 157.2 990 0 0 -- --
1971 2 17 05 -17.5 157.7 984 0 0 -- --
1971 2 17 11 -18.2 158.1 980 0 0 -- --
1971 2 17 17 -17.9 158.6 980 0 0 -- --
1971 2 17 20 -18.2 159.2 983 0 0 -- --
1971 2 17 23 -18.9 159.6 985 0 0 -- --
1971 2 18 11 -20.5 160.9 991 0 0 -- --
1971 2 18 23 -21.5 161.7 992 0 0 -- --
1971 2 19 11 -22.3 162.3 993 0 0 -- --
1971 2 19 23 -22.7 162.6 995 0 0 -- --
1971 2 20 11 -23.5 163.3 996 0 0 -- --
1971 2 20 17 -24.3 164.0 995 0 0 -- --
1971 2 20 23 -24.9 165.0 995 0 0 -- --
< Cyclone 197113 1971 Season Cyclone 197116 >

Help